Time;durP1;ratioP1;P1;durP2;ratioP2;P2;SDS_P1;SDS_P2;PMS_P1;PMS_P2;Temp;Humidity;BMP_temperature;BMP_pressure;BME280_temperature;BME280_humidity;BME280_pressure;Samples;Min_cycle;Max_cycle;Signal;HPM_P1;HPM_P2
2024/01/19 00:01:31;;;;;;;5.87;5.30;;;;;;;14.71;100.00;131303.47;5133020;27;20190;-57
2024/01/19 00:03:59;;;;;;;5.80;5.03;;;;;;;14.70;100.00;128295.09;5133059;27;20225;-55
2024/01/19 00:06:26;;;;;;;6.77;4.87;;;;;;;14.64;100.00;124944.00;5132952;27;20179;-56
2024/01/19 00:08:53;;;;;;;6.23;5.40;;;;;;;14.61;100.00;121936.25;5132945;27;20239;-57
2024/01/19 00:11:22;;;;;;;11.43;5.00;;;;;;;14.48;100.00;116914.78;5132961;27;20190;-57
2024/01/19 00:13:49;;;;;;;5.77;5.20;;;;;;;14.62;100.00;111287.19;5132872;27;20182;-57
2024/01/19 00:16:18;;;;;;;7.13;6.07;;;;;;;14.65;100.00;105315.50;5132803;27;20183;-56
2024/01/19 00:18:45;;;;;;;6.30;5.90;;;;;;;14.42;100.00;101627.97;5133086;27;20645;-57
2024/01/19 00:21:12;;;;;;;10.40;5.80;;;;;;;14.69;100.00;103995.66;5132764;28;20243;-56
2024/01/19 00:23:39;;;;;;;5.93;5.30;;;;;;;14.74;100.00;105663.47;5133066;27;20194;-55
2024/01/19 00:26:06;;;;;;;5.70;5.30;;;;;;;14.70;100.00;103664.84;5132859;27;20194;-56
2024/01/19 00:28:35;;;;;;;6.43;4.83;;;;;;;14.51;100.00;99655.88;5133055;27;20232;-56
2024/01/19 00:31:02;;;;;;;6.77;5.00;;;;;;;14.62;100.00;94048.03;5132988;28;20212;-57
2024/01/19 00:33:29;;;;;;;5.77;5.23;;;;;;;14.61;100.00;89089.50;5132708;28;20565;-57
2024/01/19 00:35:56;;;;;;;5.77;5.10;;;;;;;14.57;100.00;85453.84;5132643;28;20182;-56
2024/01/19 00:38:23;;;;;;;5.53;4.33;;;;;;;14.59;100.00;82818.13;5132673;28;20198;-56
2024/01/19 00:40:50;;;;;;;4.40;4.07;;;;;;;14.55;100.00;77543.03;5132969;27;20633;-56
2024/01/19 00:43:17;;;;;;;4.23;3.70;;;;;;;14.58;100.00;74586.34;5136659;27;20606;-56
2024/01/19 00:45:45;;;;;;;7.13;3.83;;;;;;;14.60;100.00;70973.69;5136870;27;20179;-56
2024/01/19 00:48:12;;;;;;;4.67;4.27;;;;;;;14.68;100.00;71311.38;5136684;27;20174;-57
2024/01/19 00:50:39;;;;;;;4.53;3.90;;;;;;;14.75;100.00;76253.03;5136763;27;20644;-55
2024/01/19 00:53:06;;;;;;;4.27;3.97;;;;;;;14.81;100.00;81200.28;5136672;27;20182;-58
2024/01/19 00:55:33;;;;;;;5.03;3.90;;;;;;;14.82;100.00;86478.94;5136772;27;20298;-56
2024/01/19 00:58:00;;;;;;;5.50;4.07;;;;;;;14.82;100.00;90112.56;5136888;27;20255;-57
2024/01/19 01:00:28;;;;;;;4.60;3.73;;;;;;;14.75;100.00;91753.41;5136532;27;20187;-56
2024/01/19 01:02:57;;;;;;;7.53;3.90;;;;;;;14.81;100.00;94078.44;5137584;27;20621;-56
2024/01/19 01:05:24;;;;;;;3.67;3.40;;;;;;;14.67;100.00;93393.84;5137021;27;20532;-56
2024/01/19 01:07:51;;;;;;;3.97;3.60;;;;;;;14.60;100.00;92722.28;5136477;27;20182;-56
2024/01/19 01:10:18;;;;;;;7.37;3.60;;;;;;;14.62;100.00;89751.56;5137042;27;20187;-55
2024/01/19 01:12:45;;;;;;;6.27;3.67;;;;;;;14.62;100.00;84141.13;5136354;27;20183;-58
2024/01/19 01:15:12;;;;;;;4.17;2.70;;;;;;;14.66;100.00;86456.09;5136431;27;20179;-57
2024/01/19 01:17:39;;;;;;;4.50;3.60;;;;;;;14.71;100.00;89764.56;5136451;27;20637;-56
2024/01/19 01:20:10;;;;;;;5.07;3.17;;;;;;;14.71;100.00;90755.72;5136542;27;20191;-56
2024/01/19 01:22:37;;;;;;;6.60;2.80;;;;;;;14.66;100.00;90088.00;5136938;27;20217;-56
2024/01/19 01:25:05;;;;;;;4.87;3.27;;;;;;;14.79;100.00;93082.19;5136184;27;20183;-55
2024/01/19 01:27:32;;;;;;;2.63;2.53;;;;;;;14.77;100.00;97712.56;5136557;27;20259;-57
2024/01/19 01:29:59;;;;;;;4.47;3.50;;;;;;;14.90;100.00;100715.44;5136300;27;20182;-56
2024/01/19 01:32:26;;;;;;;3.87;3.43;;;;;;;14.93;100.00;104701.78;5135939;27;20193;-57
2024/01/19 01:34:53;;;;;;;3.20;3.00;;;;;;;14.90;100.00;109012.44;5136202;27;20205;-56
2024/01/19 01:37:22;;;;;;;7.50;3.70;;;;;;;14.88;100.00;113331.81;5136151;27;20641;-56
2024/01/19 01:39:49;;;;;;;4.40;4.10;;;;;;;14.88;100.00;118990.88;5136046;27;20573;-56
2024/01/19 01:42:16;;;;;;;8.37;4.13;;;;;;;14.95;100.00;120671.66;5135778;27;20541;-56
2024/01/19 01:44:43;;;;;;;4.53;4.10;;;;;;;14.90;100.00;121329.25;5135717;27;20610;-56
2024/01/19 01:47:10;;;;;;;8.03;4.87;;;;;;;14.88;100.00;121325.16;5135711;27;20239;-57
2024/01/19 01:49:37;;;;;;;5.50;5.00;;;;;;;14.85;100.00;122652.88;5135937;27;20562;-56
2024/01/19 01:52:05;;;;;;;5.53;5.13;;;;;;;14.82;100.00;122646.66;5135798;27;20570;-56
2024/01/19 01:54:33;;;;;;;12.23;5.80;;;;;;;14.72;100.00;124293.66;5135531;27;20725;-57
2024/01/19 01:57:01;;;;;;;6.13;5.37;;;;;;;14.75;100.00;125634.78;5135406;27;20187;-56
2024/01/19 01:59:29;;;;;;;5.77;5.37;;;;;;;14.56;100.00;125261.72;5135621;27;20599;-56
2024/01/19 02:01:56;;;;;;;7.43;6.83;;;;;;;14.56;100.00;125595.38;5135820;27;20259;-56
2024/01/19 02:04:25;;;;;;;7.33;6.73;;;;;;;14.64;100.00;123943.19;5135308;27;20235;-56
2024/01/19 02:06:52;;;;;;;9.43;8.53;;;;;;;14.64;100.00;122610.28;5135175;27;20191;-56
2024/01/19 02:09:19;;;;;;;7.73;7.03;;;;;;;14.48;100.00;123909.56;5135510;27;20228;-56
2024/01/19 02:11:47;;;;;;;10.97;8.30;;;;;;;14.43;100.00;118568.13;5135037;27;20240;-57
2024/01/19 02:14:14;;;;;;;9.87;8.93;;;;;;;14.48;100.00;120910.72;5135187;27;20182;-57
2024/01/19 02:16:41;;;;;;;10.50;8.70;;;;;;;14.52;100.00;115591.69;5135106;27;20183;-56
2024/01/19 02:19:08;;;;;;;14.97;8.20;;;;;;;14.50;100.00;114257.28;5134999;27;20206;-56
2024/01/19 02:21:35;;;;;;;9.40;8.27;;;;;;;14.45;100.00;124903.75;5135267;27;20290;-57
2024/01/19 02:24:04;;;;;;;12.10;8.37;;;;;;;14.43;100.00;121900.06;5135221;27;20183;-56
2024/01/19 02:26:35;;;;;;;8.80;8.17;;;;;;;14.41;100.00;122895.78;5135155;27;20194;-56
2024/01/19 02:29:03;;;;;;;10.40;8.93;;;;;;;14.38;100.00;125889.59;5135549;27;20183;-56
2024/01/19 02:31:30;;;;;;;9.47;8.73;;;;;;;14.31;100.00;130213.47;5135166;27;20601;-56
2024/01/19 02:33:57;;;;;;;9.73;8.67;;;;;;;14.19;100.00;122183.53;5134559;27;20186;-56
2024/01/19 02:36:24;;;;;;;11.63;8.77;;;;;;;14.25;100.00;121196.59;5134875;27;20279;-55
2024/01/19 02:38:51;;;;;;;10.23;8.40;;;;;;;14.14;100.00;123506.94;5134867;27;20203;-56
2024/01/19 02:41:18;;;;;;;10.13;8.30;;;;;;;14.16;100.00;126844.22;5134970;27;20689;-57
2024/01/19 02:43:47;;;;;;;8.63;7.87;;;;;;;14.11;100.00;125834.03;5134910;27;20182;-56
2024/01/19 02:46:16;;;;;;;12.13;8.47;;;;;;;14.06;100.00;129492.91;5134904;27;20256;-56
2024/01/19 02:48:43;;;;;;;8.77;7.90;;;;;;;13.99;100.00;128476.50;5134774;27;20175;-56
2024/01/19 02:51:10;;;;;;;11.63;7.97;;;;;;;13.94;100.00;124131.38;5134318;27;20182;-56
2024/01/19 02:53:37;;;;;;;7.73;7.23;;;;;;;13.80;100.00;119774.00;5134662;27;20195;-57
2024/01/19 02:56:04;;;;;;;12.00;8.10;;;;;;;13.90;100.00;119461.59;5134182;27;20651;-55
2024/01/19 02:58:31;;;;;;;12.47;8.17;;;;;;;13.85;100.00;113800.00;5134205;27;20209;-56
2024/01/19 03:01:00;;;;;;;8.87;8.17;;;;;;;13.83;100.00;104507.09;5135270;27;20179;-56
2024/01/19 03:03:27;;;;;;;8.30;7.50;;;;;;;13.86;100.00;102195.00;5134176;27;20186;-56
2024/01/19 03:05:54;;;;;;;9.60;8.37;;;;;;;13.75;100.00;121427.63;5133830;27;20636;-56
2024/01/19 03:08:22;;;;;;;7.10;6.50;;;;;;;13.73;100.00;119428.16;5134031;27;20183;-56
2024/01/19 03:10:49;;;;;;;13.57;8.57;;;;;;;13.65;100.00;134409.50;5134028;27;20285;-57
2024/01/19 03:13:17;;;;;;;8.80;8.17;;;;;;;13.56;100.00;145660.94;5133951;27;20629;-56
2024/01/19 03:15:44;;;;;;;12.00;7.27;;;;;;;13.26;100.00;145166.91;5134125;27;20186;-56
2024/01/19 03:18:13;;;;;;;8.77;8.10;;;;;;;13.27;100.00;131655.78;5133855;27;20179;-56
2024/01/19 03:20:40;;;;;;;10.70;9.47;;;;;;;13.21;100.00;123314.28;5133739;27;20437;-56
2024/01/19 03:23:07;;;;;;;11.90;10.07;;;;;;;12.89;100.00;115274.06;5134077;27;20179;-56
2024/01/19 03:25:34;;;;;;;11.50;10.33;;;;;;;13.18;100.00;109029.38;5133731;27;20194;-57
2024/01/19 03:28:02;;;;;;;10.63;9.67;;;;;;;13.14;100.00;109353.31;5133961;27;20625;-57
2024/01/19 03:30:29;;;;;;;10.33;9.53;;;;;;;13.11;100.00;112662.88;5133587;27;20186;-56
2024/01/19 03:32:56;;;;;;;13.50;10.47;;;;;;;13.05;100.00;116302.19;5134116;27;20240;-56
2024/01/19 03:35:25;;;;;;;14.17;12.57;;;;;;;12.96;100.00;101378.38;5133623;27;20183;-57
2024/01/19 03:37:52;;;;;;;15.60;13.87;;;;;;;12.92;100.00;93779.16;5133419;27;20224;-57
2024/01/19 03:40:19;;;;;;;15.90;12.37;;;;;;;12.90;100.00;94105.75;5133658;27;20275;-57
2024/01/19 03:42:46;;;;;;;17.63;12.23;;;;;;;12.77;100.00;100025.06;5133724;27;20178;-56
2024/01/19 03:45:13;;;;;;;13.27;12.00;;;;;;;12.75;100.00;84533.16;5133318;27;20187;-57
2024/01/19 03:47:40;;;;;;;11.97;10.83;;;;;;;12.61;100.00;82212.59;5133256;27;20212;-56
2024/01/19 03:50:08;;;;;;;11.43;10.43;;;;;;;12.72;100.00;77959.34;5133297;27;20261;-57
2024/01/19 03:52:37;;;;;;;15.97;11.50;;;;;;;12.74;100.00;80260.66;5133513;27;20584;-56
2024/01/19 03:55:05;;;;;;;14.63;10.50;;;;;;;12.67;100.00;87811.53;5133160;27;20222;-56
2024/01/19 03:57:32;;;;;;;11.87;10.87;;;;;;;12.63;100.00;88134.63;5133407;27;20212;-56
2024/01/19 03:59:59;;;;;;;11.30;10.20;;;;;;;12.53;100.00;82202.06;5133418;27;20615;-56
2024/01/19 04:02:26;;;;;;;11.90;10.70;;;;;;;12.70;100.00;86170.22;5133407;27;20182;-57
2024/01/19 04:04:53;;;;;;;11.00;9.87;;;;;;;12.62;100.00;93072.03;5133427;27;20178;-56
2024/01/19 04:07:20;;;;;;;11.90;10.87;;;;;;;12.52;100.00;90750.50;5133366;27;20694;-58
2024/01/19 04:09:49;;;;;;;12.10;11.03;;;;;;;12.58;100.00;92736.19;5133307;27;20185;-57
2024/01/19 04:12:18;;;;;;;11.97;10.73;;;;;;;12.59;100.00;88786.03;5132947;27;20254;-57
2024/01/19 04:14:46;;;;;;;11.60;10.60;;;;;;;12.54;100.00;87791.28;5133236;27;20183;-56
2024/01/19 04:17:13;;;;;;;12.40;11.30;;;;;;;12.56;100.00;91086.00;5132271;27;20212;-58
2024/01/19 04:19:41;;;;;;;15.77;12.53;;;;;;;12.29;100.00;89400.06;5132897;27;20203;-57
2024/01/19 04:22:08;;;;;;;13.83;12.50;;;;;;;12.39;100.00;83824.03;5133766;27;20600;-58
2024/01/19 04:24:35;;;;;;;19.03;13.90;;;;;;;12.38;100.00;87109.53;5133691;27;20202;-57
2024/01/19 04:27:04;;;;;;;15.47;12.90;;;;;;;12.34;100.00;81518.69;5133135;27;20263;-56
2024/01/19 04:29:31;;;;;;;20.87;14.00;;;;;;;12.33;100.00;76924.88;5132738;27;20208;-57
2024/01/19 04:31:58;;;;;;;16.93;15.23;;;;;;;12.40;100.00;75621.44;5132709;28;20182;-56
2024/01/19 04:34:25;;;;;;;16.60;14.90;;;;;;;12.40;100.00;73327.84;5132750;28;20187;-56
2024/01/19 04:36:52;;;;;;;23.53;16.40;;;;;;;12.34;100.00;74631.25;5133429;28;20183;-57
2024/01/19 04:39:19;;;;;;;23.33;15.27;;;;;;;12.29;100.00;81511.72;5132563;28;20202;-57
2024/01/19 04:41:46;;;;;;;27.37;18.83;;;;;;;12.17;100.00;78542.38;5132612;28;20182;-57
2024/01/19 04:44:15;;;;;;;22.20;16.57;;;;;;;12.26;100.00;78882.47;5132880;28;20250;-57
2024/01/19 04:46:42;;;;;;;22.63;16.60;;;;;;;12.20;100.00;77235.53;5133396;28;20269;-56
2024/01/19 04:49:09;;;;;;;21.03;15.37;;;;;;;12.28;100.00;73641.50;5132730;28;20195;-57
2024/01/19 04:51:36;;;;;;;21.30;15.20;;;;;;;12.32;100.00;72991.56;5132499;28;20219;-56
2024/01/19 04:54:03;;;;;;;24.70;16.20;;;;;;;12.30;100.00;70696.94;5132361;28;20216;-56
2024/01/19 04:56:30;;;;;;;25.03;17.10;;;;;;;12.31;100.00;69389.97;5132804;28;20549;-56
2024/01/19 04:58:58;;;;;;;20.53;16.83;;;;;;;12.28;100.00;68405.22;5132622;28;20232;-56
2024/01/19 05:01:26;;;;;;;20.97;16.40;;;;;;;12.28;100.00;69058.72;5132751;28;20561;-57
2024/01/19 05:03:53;;;;;;;20.83;16.80;;;;;;;12.34;100.00;69720.72;5132752;28;20232;-56
2024/01/19 05:06:20;;;;;;;18.70;15.97;;;;;;;12.32;100.00;71681.88;5132597;28;20232;-58
2024/01/19 05:08:47;;;;;;;18.57;14.73;;;;;;;12.34;100.00;72011.13;5132590;28;20184;-56
2024/01/19 05:11:15;;;;;;;18.27;13.37;;;;;;;12.13;100.00;70676.91;5132276;28;20179;-58
2024/01/19 05:13:43;;;;;;;20.03;14.27;;;;;;;12.39;100.00;70052.75;5132267;28;20187;-56
2024/01/19 05:16:10;;;;;;;13.97;12.57;;;;;;;12.43;100.00;70712.13;5132623;28;20553;-57
2024/01/19 05:18:40;;;;;;;15.23;12.67;;;;;;;12.47;100.00;70716.97;5132432;28;20258;-56
2024/01/19 05:21:07;;;;;;;15.70;12.63;;;;;;;12.49;100.00;71046.75;5132487;28;20750;-55
2024/01/19 05:23:34;;;;;;;14.43;13.03;;;;;;;12.49;100.00;74977.56;5132174;28;20195;-57
2024/01/19 05:26:04;;;;;;;26.63;14.03;;;;;;;12.32;100.00;74957.00;5132554;28;20202;-56
2024/01/19 05:28:32;;;;;;;22.43;13.83;;;;;;;12.48;100.00;78583.41;5135047;27;20285;-57
2024/01/19 05:30:59;;;;;;;14.13;12.80;;;;;;;12.49;100.00;79241.00;5136263;27;20189;-56
2024/01/19 05:33:26;;;;;;;14.00;12.33;;;;;;;12.40;100.00;76605.56;5136713;27;20243;-57
2024/01/19 05:35:55;;;;;;;16.20;12.33;;;;;;;12.50;100.00;75962.28;5135872;27;20183;-57
2024/01/19 05:38:22;;;;;;;11.73;10.67;;;;;;;12.44;100.00;74643.41;5136084;27;20617;-56
2024/01/19 05:40:49;;;;;;;19.97;13.37;;;;;;;12.48;100.00;74320.84;5136102;27;20255;-57
2024/01/19 05:43:16;;;;;;;16.63;11.83;;;;;;;-96.09;100.00;72951.06;5135687;27;20208;-58
2024/01/19 05:45:43;;;;;;;13.30;11.83;;;;;;;12.42;100.00;76280.34;5135947;27;20195;-56
2024/01/19 05:48:10;;;;;;;17.63;14.70;;;;;;;12.44;100.00;75298.88;5135675;27;20186;-56
2024/01/19 05:50:37;;;;;;;14.03;12.60;;;;;;;12.53;100.00;75638.31;5135855;27;20229;-57
2024/01/19 05:53:06;;;;;;;14.03;12.63;;;;;;;12.58;100.00;79581.44;5135512;27;20186;-56
2024/01/19 05:55:35;;;;;;;21.03;18.60;;;;;;;12.62;100.00;83856.97;5135247;27;20612;-57
2024/01/19 05:58:03;;;;;;;28.87;22.10;;;;;;;12.71;100.00;81241.81;5135698;27;20541;-57
2024/01/19 06:00:30;;;;;;;39.40;23.17;;;;;;;12.77;100.00;79279.03;5135298;27;20233;-57
2024/01/19 06:02:57;;;;;;;33.63;24.60;;;;;;;12.87;100.00;80934.13;5135344;27;20193;-56
2024/01/19 06:05:24;;;;;;;33.90;25.37;;;;;;;12.98;100.00;81278.66;5135217;27;20187;-56
2024/01/19 06:07:51;;;;;;;36.60;25.57;;;;;;;13.05;100.00;83918.63;5135175;27;20189;-56
2024/01/19 06:10:19;;;;;;;41.43;27.23;;;;;;;13.12;100.00;92161.34;5135036;27;20186;-57
2024/01/19 06:12:46;;;;;;;32.97;24.87;;;;;;;13.19;100.00;95471.59;5135348;27;20561;-57
2024/01/19 06:15:14;;;;;;;38.17;25.07;;;;;;;12.94;100.00;101044.44;5135263;27;20239;-56
2024/01/19 06:17:41;;;;;;;37.33;25.13;;;;;;;13.38;100.00;100128.13;5135060;27;20182;-56
2024/01/19 06:20:08;;;;;;;32.77;23.60;;;;;;;13.59;100.00;101486.28;5135642;27;20199;-56
2024/01/19 06:22:35;;;;;;;34.27;22.70;;;;;;;13.74;100.00;111122.88;5135146;27;20193;-57
2024/01/19 06:25:03;;;;;;;28.77;21.80;;;;;;;13.95;100.00;127467.09;5134830;27;20190;-55
2024/01/19 06:27:32;;;;;;;26.80;19.80;;;;;;;14.16;100.00;149123.75;5135352;27;20210;-56
2024/01/19 06:29:59;;;;;;;19.87;16.03;;;;;;;14.25;100.00;149620.00;5135147;27;20625;-56
2024/01/19 06:32:26;;;;;;;17.20;15.03;;;;;;;14.38;100.00;149653.03;5134995;27;20186;-56
2024/01/19 06:34:53;;;;;;;17.07;14.40;;;;;;;14.38;100.00;149651.75;5134666;27;20247;-58
2024/01/19 06:37:20;;;;;;;17.90;16.03;;;;;;;14.60;100.00;149708.78;5134850;27;20259;-57
2024/01/19 06:39:47;;;;;;;17.10;14.97;;;;;;;14.71;100.00;149735.44;5133938;27;20622;-58
2024/01/19 06:42:14;;;;;;;169.67;131.60;;;;;;;14.82;100.00;149763.31;5134723;27;20187;-56
2024/01/19 06:44:44;;;;;;;23.17;18.43;;;;;;;14.76;100.00;149746.84;5134789;27;20589;-57
2024/01/19 06:47:11;;;;;;;14.27;12.73;;;;;;;15.02;100.00;149814.03;5134486;27;20179;-57
2024/01/19 06:49:38;;;;;;;15.17;12.60;;;;;;;15.42;100.00;149913.00;5134513;27;20187;-59
2024/01/19 06:52:06;;;;;;;14.93;13.37;;;;;;;15.91;100.00;150037.41;5134185;27;20186;-58
2024/01/19 06:54:33;;;;;;;17.07;13.50;;;;;;;16.78;100.00;150255.84;5134363;27;20257;-58
2024/01/19 06:57:01;;;;;;;14.60;12.97;;;;;;;17.58;100.00;150456.63;5134446;27;20201;-58
2024/01/19 06:59:28;;;;;;;19.47;14.87;;;;;;;18.27;100.00;150629.53;5133935;27;20183;-58
2024/01/19 07:01:56;;;;;;;16.63;14.30;;;;;;;19.06;100.00;150829.25;5134334;27;20282;-57
2024/01/19 07:04:24;;;;;;;14.27;12.50;;;;;;;19.72;100.00;150993.47;5134107;27;20190;-61
2024/01/19 07:06:51;;;;;;;14.47;12.97;;;;;;;20.36;100.00;151156.47;5134257;27;20194;-63
2024/01/19 07:09:18;;;;;;;13.80;12.90;;;;;;;20.73;100.00;151248.16;5134079;27;20251;-62
2024/01/19 07:11:45;;;;;;;14.50;13.25;;;;;;;20.89;100.00;151288.91;5134364;27;20214;-61
2024/01/19 07:14:12;;;;;;;17.23;12.52;;;;;;;21.12;100.00;151347.59;5134436;27;20195;-64
2024/01/19 07:16:40;;;;;;;12.68;11.82;;;;;;;21.73;100.00;151501.75;5133852;27;20187;-61
2024/01/19 07:19:09;;;;;;;13.43;12.13;;;;;;;22.22;100.00;151624.22;5134286;27;20628;-62
2024/01/19 07:21:38;;;;;;;12.05;11.15;;;;;;;22.93;95.88;151804.06;5133941;27;20207;-61
2024/01/19 07:24:05;;;;;;;14.05;13.10;;;;;;;22.30;98.49;151644.59;5133818;27;20612;-61
2024/01/19 07:26:32;;;;;;;13.80;12.55;;;;;;;22.07;99.75;151587.22;5134010;27;20587;-58
2024/01/19 07:29:04;;;;;;;13.45;12.40;;;;;;;22.35;99.57;151656.09;5133648;27;20637;-58
2024/01/19 07:31:31;;;;;;;12.07;11.27;;;;;;;22.40;97.78;151670.13;5133860;27;20183;-59
2024/01/19 07:33:58;;;;;;;11.63;10.88;;;;;;;22.22;99.07;151625.50;5134325;27;20579;-58
2024/01/19 07:36:26;;;;;;;9.90;9.27;;;;;;;22.00;99.63;151568.09;5133086;27;20183;-59
2024/01/19 07:38:54;;;;;;;9.98;9.02;;;;;;;22.21;99.16;151621.66;5133325;27;20190;-59
2024/01/19 07:41:21;;;;;;;10.20;9.60;;;;;;;22.72;95.29;151750.50;5133595;27;20622;-59
2024/01/19 07:43:48;;;;;;;12.18;11.30;;;;;;;23.18;89.65;151867.84;5133457;27;20187;-59
2024/01/19 07:46:15;;;;;;;11.65;10.85;;;;;;;23.27;89.10;151888.28;5133448;27;20228;-58
2024/01/19 07:48:42;;;;;;;11.25;10.30;;;;;;;23.68;88.13;151992.94;5132937;27;20187;-58
2024/01/19 07:51:09;;;;;;;8.80;8.27;;;;;;;24.04;84.94;152084.88;5133011;27;20227;-59
2024/01/19 07:53:38;;;;;;;9.40;8.65;;;;;;;24.26;82.35;152138.56;5133104;27;20178;-59
2024/01/19 07:56:06;;;;;;;7.43;7.13;;;;;;;24.79;78.87;152273.91;5133125;27;20753;-58
2024/01/19 07:58:33;;;;;;;8.38;7.80;;;;;;;24.61;78.60;152226.66;5133119;27;20182;-60
2024/01/19 08:01:00;;;;;;;7.40;6.95;;;;;;;24.93;76.08;152309.72;5133287;27;20665;-58
2024/01/19 08:03:27;;;;;;;8.98;8.20;;;;;;;23.53;79.27;151954.69;5132804;27;20178;-59
2024/01/19 08:05:54;;;;;;;9.35;8.73;;;;;;;23.56;80.90;151963.63;5133081;27;20565;-59
2024/01/19 08:08:21;;;;;;;8.70;7.97;;;;;;;23.19;83.16;151870.41;5132728;27;20626;-59
2024/01/19 08:10:50;;;;;;;10.45;9.77;;;;;;;23.32;84.33;151901.03;5132753;27;20629;-59
2024/01/19 08:13:17;;;;;;;10.23;9.30;;;;;;;23.95;81.91;152061.91;5132676;27;20179;-59
2024/01/19 08:15:44;;;;;;;8.07;7.32;;;;;;;24.51;78.33;152203.69;5133056;27;20213;-58
2024/01/19 08:18:11;;;;;;;10.20;8.80;;;;;;;24.50;80.12;152201.13;5133166;27;20231;-59
2024/01/19 08:20:38;;;;;;;17.35;8.60;;;;;;;25.52;77.51;152457.94;5133142;27;20226;-59
2024/01/19 08:23:05;;;;;;;15.07;8.10;;;;;;;26.24;72.91;152639.50;5133100;27;20186;-59
2024/01/19 08:25:32;;;;;;;7.22;6.55;;;;;;;25.96;72.85;152569.19;5132753;27;20737;-59
2024/01/19 08:28:01;;;;;;;6.93;6.35;;;;;;;25.97;72.41;152570.47;5133057;27;20194;-59
2024/01/19 08:30:28;;;;;;;9.32;5.28;;;;;;;25.80;71.87;152528.28;5133059;27;20506;-59
2024/01/19 08:32:55;;;;;;;4.90;4.50;;;;;;;26.66;67.60;152745.63;5132493;28;20183;-59
2024/01/19 08:35:22;;;;;;;8.38;4.57;;;;;;;26.31;66.78;152658.69;5132861;28;20236;-59
2024/01/19 08:37:49;;;;;;;16.65;4.28;;;;;;;26.14;66.29;152613.94;5132573;28;20198;-59
2024/01/19 08:40:16;;;;;;;9.30;3.90;;;;;;;26.23;65.09;152638.22;5132485;28;20199;-60
2024/01/19 08:42:43;;;;;;;9.05;4.22;;;;;;;26.25;65.28;152642.09;5132023;28;20187;-60
2024/01/19 08:45:11;;;;;;;24.80;5.57;;;;;;;26.22;65.54;152635.72;5132180;28;20607;-58
2024/01/19 08:47:39;;;;;;;11.50;4.40;;;;;;;25.74;65.68;152514.22;5132464;28;20183;-58
2024/01/19 08:50:07;;;;;;;13.80;3.97;;;;;;;26.46;64.09;152695.78;5132774;28;20179;-59
2024/01/19 08:52:34;;;;;;;4.85;2.90;;;;;;;27.22;60.42;152888.97;5132087;28;20187;-59
2024/01/19 08:55:01;;;;;;;8.70;2.90;;;;;;;27.80;58.18;153033.56;5132425;28;20259;-59
2024/01/19 08:57:28;;;;;;;13.23;4.40;;;;;;;28.20;56.16;153134.75;5132361;28;20206;-59
2024/01/19 08:59:55;;;;;;;18.58;4.80;;;;;;;28.55;54.87;153224.38;5132676;28;20183;-59
2024/01/19 09:02:23;;;;;;;13.95;5.15;;;;;;;27.83;55.38;153042.56;5132914;27;20672;-58
2024/01/19 09:04:51;;;;;;;15.77;5.32;;;;;;;27.66;56.15;153000.34;5136471;27;20193;-59
2024/01/19 09:07:18;;;;;;;21.85;5.15;;;;;;;27.20;57.19;152882.56;5137291;27;20186;-59
2024/01/19 09:09:45;;;;;;;27.83;6.85;;;;;;;28.52;54.35;153217.94;5136865;27;20178;-59
2024/01/19 09:12:12;;;;;;;16.15;6.13;;;;;;;28.77;53.16;153279.47;5136703;27;20610;-58
2024/01/19 09:14:39;;;;;;;9.55;5.03;;;;;;;28.73;52.69;153269.25;5137320;27;20187;-59
2024/01/19 09:17:06;;;;;;;8.23;4.28;;;;;;;28.88;51.79;153308.91;5136172;27;20333;-59
2024/01/19 09:19:35;;;;;;;15.60;5.15;;;;;;;30.02;48.59;153597.25;5135991;27;20200;-60
2024/01/19 09:22:02;;;;;;;4.50;3.33;;;;;;;29.00;49.85;153339.66;5135908;27;20202;-59
2024/01/19 09:24:29;;;;;;;3.30;3.00;;;;;;;27.82;51.35;153040.00;5136295;27;20205;-58
2024/01/19 09:26:56;;;;;;;3.38;3.10;;;;;;;27.63;52.78;152991.34;5136272;27;20259;-59
2024/01/19 09:29:23;;;;;;;12.55;4.78;;;;;;;27.48;53.63;152954.25;5135896;27;20187;-58
2024/01/19 09:31:50;;;;;;;11.27;5.25;;;;;;;28.10;52.38;153111.69;5136291;27;20178;-60
2024/01/19 09:34:18;;;;;;;18.05;4.53;;;;;;;28.48;50.91;153206.41;5136168;27;20182;-61
2024/01/19 09:36:46;;;;;;;13.27;6.07;;;;;;;29.41;49.29;153443.44;5136631;27;20187;-60
2024/01/19 09:39:13;;;;;;;7.50;5.30;;;;;;;30.39;48.14;153690.78;5136565;27;20243;-59
2024/01/19 09:41:46;;;;;;;8.32;4.10;;;;;;;30.33;46.83;153676.72;5136268;27;20642;-59
2024/01/19 09:44:13;;;;;;;11.82;4.20;;;;;;;31.24;46.23;153907.56;5136299;27;20187;-59
2024/01/19 09:47:15;;;;;;;4.70;3.45;;;;;;;31.34;45.41;153930.66;5136147;27;20698;-59
2024/01/19 09:49:57;;;;;;;4.82;3.47;;;;;;;31.56;43.68;153988.44;5135920;27;20192;-60
2024/01/19 09:52:35;;;;;;;5.97;3.47;;;;;;;31.56;42.25;153987.13;5135522;27;20198;-62
2024/01/19 09:55:02;;;;;;;8.18;3.63;;;;;;;30.24;44.80;153653.63;5135673;27;20238;-59
2024/01/19 09:57:31;;;;;;;10.52;3.03;;;;;;;31.57;42.63;153989.72;5135398;27;20179;-58
2024/01/19 09:59:58;;;;;;;7.22;3.05;;;;;;;30.07;44.27;153610.06;5121610;27;20202;-58
2024/01/19 10:02:27;;;;;;;4.55;1.65;;;;;;;28.12;46.80;153115.56;5114471;28;20234;-58
2024/01/19 10:04:54;;;;;;;5.00;2.00;;;;;;;26.95;49.30;152818.56;5115526;28;20179;-59
2024/01/19 10:07:22;;;;;;;2.92;1.98;;;;;;;26.10;51.88;152603.66;5114707;28;20187;-58
2024/01/19 10:09:51;;;;;;;4.53;1.80;;;;;;;24.91;56.37;152304.59;5114380;28;20188;-60
2024/01/19 10:12:20;;;;;;;5.10;2.50;;;;;;;24.46;58.88;152189.63;5114805;28;20333;-61
2024/01/19 10:14:47;;;;;;;7.00;2.30;;;;;;;23.77;62.19;152015.94;5114288;28;20184;-57
2024/01/19 10:17:15;;;;;;;5.00;2.30;;;;;;;23.73;64.11;152004.44;5114380;28;20252;-58
2024/01/19 10:19:43;;;;;;;6.30;2.00;;;;;;;23.71;64.87;151999.38;5114112;28;20181;-58
2024/01/19 10:22:26;;;;;;;4.28;1.50;;;;;;;23.78;64.15;152018.50;5115527;28;20213;-59
2024/01/19 10:25:02;;;;;;;14.13;2.90;;;;;;;23.77;65.10;152015.94;5114456;28;20191;-58
2024/01/19 10:27:40;;;;;;;12.45;3.20;;;;;;;23.94;65.77;152059.34;5114205;28;20707;-58
2024/01/19 10:30:14;;;;;;;12.20;3.45;;;;;;;24.52;62.41;152204.97;5114682;28;20545;-58
2024/01/19 10:32:43;;;;;;;8.27;2.70;;;;;;;25.40;59.78;152427.25;5114263;28;20202;-59
2024/01/19 10:35:12;;;;;;;10.00;2.78;;;;;;;26.25;56.29;152643.38;5113964;28;20183;-59
2024/01/19 10:37:39;;;;;;;7.75;1.98;;;;;;;26.95;53.24;152818.56;5114556;28;20184;-58
2024/01/19 10:40:21;;;;;;;11.70;1.92;;;;;;;27.77;50.89;153025.91;5114041;28;20206;-58
2024/01/19 10:42:50;;;;;;;2.45;1.08;;;;;;;27.60;50.76;152984.97;5113704;28;20176;-58
2024/01/19 10:45:20;;;;;;;1.13;0.80;;;;;;;28.13;49.49;153118.13;5113577;28;20190;-58
2024/01/19 10:47:48;;;;;;;2.55;1.13;;;;;;;29.10;47.90;153364.00;5113598;28;20183;-59
2024/01/19 10:50:16;;;;;;;1.90;1.42;;;;;;;30.47;45.50;153710.09;5114763;28;20248;-57
2024/01/19 10:52:44;;;;;;;4.30;1.13;;;;;;;31.08;43.68;153866.53;5113621;28;20218;-58
2024/01/19 10:55:18;;;;;;;3.08;1.30;;;;;;;31.59;42.35;153994.81;5113505;28;20231;-59
2024/01/19 10:57:49;;;;;;;1.65;1.08;;;;;;;31.08;43.18;153866.53;5113567;28;20187;-60
2024/01/19 11:00:21;;;;;;;2.45;1.15;;;;;;;31.78;40.88;154042.31;5113620;28;20602;-58
2024/01/19 11:02:49;;;;;;;2.95;1.13;;;;;;;31.45;42.20;153960.13;5113350;28;20187;-58
2024/01/19 11:05:19;;;;;;;1.20;1.00;;;;;;;31.81;41.22;154049.97;5113911;28;20184;-58
2024/01/19 11:07:46;;;;;;;3.13;0.98;;;;;;;31.62;40.80;154003.78;5113666;28;20188;-59
2024/01/19 11:10:13;;;;;;;2.88;0.80;;;;;;;31.72;41.21;154029.47;5113592;28;20237;-61
2024/01/19 11:12:51;;;;;;;8.85;3.40;;;;;;;33.21;38.71;154405.59;5113451;28;20298;-60
2024/01/19 11:15:29;;;;;;;8.25;1.83;;;;;;;32.91;38.80;154331.09;5113218;28;20296;-57
2024/01/19 11:17:58;;;;;;;1.77;1.50;;;;;;;33.89;37.92;154580.31;5113067;28;20186;-59